createdAt,value
2018-09-12T00:00:56.923Z,7.70
2018-09-12T00:03:25.504Z,8.30
2018-09-12T00:05:54.754Z,7.73
2018-09-12T00:08:23.644Z,7.53
2018-09-12T00:10:52.232Z,8.27
2018-09-12T00:13:20.794Z,8.67
2018-09-12T00:15:49.487Z,8.13
2018-09-12T00:18:18.319Z,8.87
2018-09-12T00:20:46.876Z,7.80
2018-09-12T00:23:15.472Z,7.97
2018-09-12T00:25:44.072Z,8.73
2018-09-12T00:28:12.639Z,7.90
2018-09-12T00:30:41.611Z,8.30
2018-09-12T00:33:10.184Z,8.20
2018-09-12T00:35:38.791Z,7.80
2018-09-12T00:38:07.451Z,7.00
2018-09-12T00:40:36.075Z,8.73
2018-09-12T00:43:04.655Z,8.27
2018-09-12T00:45:33.342Z,7.70
2018-09-12T00:48:01.895Z,8.90
2018-09-12T00:50:30.450Z,7.83
2018-09-12T00:52:59.104Z,7.70
2018-09-12T00:55:27.667Z,8.10
2018-09-12T00:57:56.678Z,7.90
2018-09-12T01:00:25.263Z,8.47
2018-09-12T01:02:53.827Z,8.83
2018-09-12T01:05:22.388Z,7.80
2018-09-12T01:07:51.020Z,7.70
2018-09-12T01:10:19.568Z,8.03
2018-09-12T01:12:48.129Z,7.63
2018-09-12T01:15:16.915Z,7.50
2018-09-12T01:17:45.471Z,8.20
2018-09-12T01:20:14.033Z,8.00
2018-09-12T01:22:42.620Z,9.97
2018-09-12T01:25:11.196Z,8.03
2018-09-12T01:27:39.771Z,8.90
2018-09-12T01:30:10.903Z,8.53
2018-09-12T01:32:39.449Z,7.90
2018-09-12T01:35:08.039Z,7.53
2018-09-12T01:37:36.656Z,8.47
2018-09-12T01:40:05.255Z,9.23
2018-09-12T01:42:33.811Z,8.00
2018-09-12T01:45:02.473Z,8.07
2018-09-12T01:47:31.036Z,8.37
2018-09-12T01:49:59.599Z,7.90
2018-09-12T01:52:28.883Z,9.40
2018-09-12T01:54:57.427Z,8.93
2018-09-12T01:57:25.980Z,8.23
2018-09-12T01:59:54.657Z,8.60
2018-09-12T02:02:23.216Z,8.40
2018-09-12T02:04:51.766Z,9.20
2018-09-12T02:07:20.413Z,8.10
2018-09-12T02:09:48.985Z,8.27
2018-09-12T02:12:17.544Z,9.13
2018-09-12T02:14:46.207Z,7.90
2018-09-12T02:17:14.760Z,8.10
2018-09-12T02:19:43.316Z,9.27
2018-09-12T02:22:12.071Z,8.57
2018-09-12T02:24:41.001Z,8.20
2018-09-12T02:27:09.552Z,7.33
2018-09-12T02:29:38.159Z,8.30
2018-09-12T02:32:06.721Z,8.33
2018-09-12T02:34:35.280Z,8.10
2018-09-12T02:37:03.908Z,8.87
2018-09-12T02:39:32.463Z,8.50
2018-09-12T02:42:01.029Z,8.47
2018-09-12T02:44:29.852Z,7.97
2018-09-12T02:46:58.428Z,9.70
2018-09-12T02:49:26.984Z,8.93
2018-09-12T02:51:55.563Z,9.03
2018-09-12T02:54:24.115Z,8.57
2018-09-12T02:56:52.663Z,7.60
2018-09-12T02:59:21.576Z,9.10
2018-09-12T03:01:50.135Z,9.60
2018-09-12T03:04:18.723Z,9.13
2018-09-12T03:06:47.395Z,8.77
2018-09-12T03:09:15.956Z,9.23
2018-09-12T03:11:44.528Z,10.37
2018-09-12T03:14:14.911Z,7.67
2018-09-12T03:16:43.478Z,10.37
2018-09-12T03:19:12.032Z,9.10
2018-09-12T03:21:40.987Z,8.50
2018-09-12T03:24:09.919Z,8.83
2018-09-12T03:26:38.515Z,9.77
2018-09-12T03:29:07.136Z,8.10
2018-09-12T03:31:35.723Z,8.90
2018-09-12T03:34:04.290Z,9.53
2018-09-12T03:36:32.991Z,9.37
2018-09-12T03:39:01.554Z,9.60
2018-09-12T03:41:30.153Z,10.37
2018-09-12T03:43:58.728Z,9.43
2018-09-12T03:46:27.295Z,8.90
2018-09-12T03:48:55.906Z,10.70
2018-09-12T03:51:24.599Z,10.00
2018-09-12T03:53:53.149Z,10.87
2018-09-12T03:56:21.712Z,10.87
2018-09-12T03:58:50.297Z,9.90
2018-09-12T04:01:18.866Z,9.70
2018-09-12T04:03:47.479Z,9.93
2018-09-12T04:06:16.204Z,10.70
2018-09-12T04:08:44.756Z,9.83
2018-09-12T04:11:13.320Z,10.03
2018-09-12T04:13:41.928Z,10.03
2018-09-12T04:16:10.755Z,10.03
2018-09-12T04:18:39.307Z,8.40
2018-09-12T04:21:07.991Z,9.90
2018-09-12T04:23:36.544Z,9.70
2018-09-12T04:26:05.136Z,10.93
2018-09-12T04:28:33.720Z,9.23
2018-09-12T04:31:02.282Z,10.20
2018-09-12T04:33:30.830Z,8.93
2018-09-12T04:35:59.475Z,9.83
2018-09-12T04:38:28.059Z,9.80
2018-09-12T04:40:56.615Z,9.70
2018-09-12T04:43:25.407Z,9.63
2018-09-12T04:45:53.964Z,9.40
2018-09-12T04:48:22.552Z,11.63
2018-09-12T04:50:51.136Z,9.93
2018-09-12T04:53:19.727Z,9.57
2018-09-12T04:55:48.286Z,10.13
2018-09-12T04:58:17.207Z,9.70
2018-09-12T05:00:45.775Z,9.67
2018-09-12T05:03:14.399Z,10.07
2018-09-12T05:05:43.374Z,10.63
2018-09-12T05:08:11.941Z,11.10
2018-09-12T05:10:40.507Z,9.03
2018-09-12T05:13:09.083Z,11.03
2018-09-12T05:15:37.644Z,9.30
2018-09-12T05:18:06.240Z,10.70
2018-09-12T05:20:34.812Z,9.00
2018-09-12T05:23:03.377Z,10.53
2018-09-12T05:25:31.941Z,9.80
2018-09-12T05:28:00.596Z,10.50
2018-09-12T05:30:29.176Z,9.87
2018-09-12T05:32:57.731Z,9.30
2018-09-12T05:35:26.397Z,10.67
2018-09-12T05:37:54.977Z,10.00
2018-09-12T05:40:23.520Z,9.70
2018-09-12T05:42:52.179Z,10.43
2018-09-12T05:45:20.836Z,10.37
2018-09-12T05:47:49.382Z,9.47
2018-09-12T05:50:18.150Z,10.90
2018-09-12T05:52:46.639Z,10.70
2018-09-12T05:55:15.199Z,10.40
2018-09-12T05:57:44.596Z,10.40
2018-09-12T06:00:13.192Z,9.13
2018-09-12T06:02:41.767Z,9.90
2018-09-12T06:05:10.760Z,9.70
2018-09-12T06:07:39.316Z,10.23
2018-09-12T06:10:07.927Z,9.53
2018-09-12T06:12:36.617Z,10.60
2018-09-12T06:15:05.247Z,10.87
2018-09-12T06:17:33.803Z,9.47
2018-09-12T06:20:02.392Z,9.90
2018-09-12T06:22:30.951Z,11.10
2018-09-12T06:24:59.516Z,10.90
2018-09-12T06:27:28.172Z,10.70
2018-09-12T06:29:56.727Z,11.03
2018-09-12T06:32:25.720Z,10.80
2018-09-12T06:34:54.319Z,10.20
2018-09-12T06:37:22.884Z,8.83
2018-09-12T06:39:51.425Z,10.13
2018-09-12T06:42:20.072Z,9.80
2018-09-12T06:44:48.735Z,10.47
2018-09-12T06:47:17.203Z,9.43
2018-09-12T06:49:49.038Z,9.20
2018-09-12T06:52:20.096Z,9.30
2018-09-12T06:54:49.187Z,8.60
2018-09-12T06:57:17.787Z,9.50
2018-09-12T06:59:46.349Z,10.00
2018-09-12T07:02:14.929Z,9.90
2018-09-12T07:04:43.491Z,9.20
2018-09-12T07:07:12.063Z,9.43
2018-09-12T07:09:40.651Z,11.30
2018-09-12T07:12:09.218Z,8.67
2018-09-12T07:14:37.822Z,9.70
2018-09-12T07:17:07.000Z,9.23
2018-09-12T07:19:35.559Z,9.53
2018-09-12T07:22:04.548Z,9.67
2018-09-12T07:24:33.275Z,9.23
2018-09-12T07:27:01.780Z,8.70
2018-09-12T07:29:30.339Z,8.43
2018-09-12T07:31:59.247Z,7.60
2018-09-12T07:34:28.324Z,7.67
2018-09-12T07:36:56.979Z,8.20
2018-09-12T07:39:25.583Z,7.80
2018-09-12T07:41:54.191Z,7.33
2018-09-12T07:44:22.751Z,8.27
2018-09-12T07:46:51.352Z,7.47
2018-09-12T07:49:19.896Z,7.60
2018-09-12T07:51:48.447Z,7.77
2018-09-12T07:54:17.124Z,8.00
2018-09-12T07:56:45.731Z,8.80
2018-09-12T07:59:14.248Z,6.97
2018-09-12T08:01:42.904Z,7.03
2018-09-12T08:04:11.461Z,7.40
2018-09-12T08:06:40.016Z,6.43
2018-09-12T08:09:11.244Z,6.70
2018-09-12T08:11:39.954Z,7.00
2018-09-12T08:14:08.504Z,5.67
2018-09-12T08:16:37.091Z,7.47
2018-09-12T08:19:05.791Z,6.03
2018-09-12T08:21:34.323Z,6.50
2018-09-12T08:24:03.315Z,7.10
2018-09-12T08:26:31.868Z,6.20
2018-09-12T08:29:00.419Z,6.10
2018-09-12T08:31:29.012Z,6.40
2018-09-12T08:33:57.562Z,7.27
2018-09-12T08:36:26.168Z,5.60
2018-09-12T08:38:54.987Z,6.37
2018-09-12T08:41:24.115Z,6.10
2018-09-12T08:43:52.663Z,5.83
2018-09-12T08:46:21.247Z,5.63
2018-09-12T08:48:50.536Z,5.80
2018-09-12T08:51:19.111Z,6.03
2018-09-12T08:53:47.776Z,6.57
2018-09-12T08:56:17.288Z,5.93
2018-09-12T08:58:45.826Z,5.17
2018-09-12T09:01:14.649Z,6.13
2018-09-12T09:03:43.960Z,5.77
2018-09-12T09:06:12.540Z,5.47
2018-09-12T09:08:41.307Z,5.37
2018-09-12T09:11:09.933Z,5.50
2018-09-12T09:13:38.479Z,5.10
2018-09-12T09:16:07.143Z,4.93
2018-09-12T09:18:35.699Z,4.50
2018-09-12T09:21:04.259Z,5.10
2018-09-12T09:23:33.939Z,4.77
2018-09-12T09:26:02.504Z,4.87
2018-09-12T09:28:31.052Z,5.40
2018-09-12T09:31:00.919Z,5.77
2018-09-12T09:33:29.485Z,4.40
2018-09-12T09:35:58.156Z,5.10
2018-09-12T09:38:26.759Z,4.63
2018-09-12T09:40:55.307Z,4.00
2018-09-12T09:43:23.860Z,4.27
2018-09-12T09:45:52.550Z,4.50
2018-09-12T09:48:21.173Z,4.70
2018-09-12T09:50:49.700Z,4.40
2018-09-12T09:53:18.468Z,4.70
2018-09-12T09:55:47.024Z,4.50
2018-09-12T09:58:15.623Z,4.00
2018-09-12T10:00:49.603Z,3.80
2018-09-12T10:04:27.512Z,3.80
2018-09-12T10:07:00.156Z,4.67
2018-09-12T10:09:31.006Z,4.37
2018-09-12T10:12:00.858Z,4.20
2018-09-12T10:14:29.731Z,4.33
2018-09-12T10:16:58.286Z,4.90
2018-09-12T10:19:27.063Z,4.77
2018-09-12T10:21:55.611Z,4.30
2018-09-12T10:24:24.247Z,4.20
2018-09-12T10:26:52.802Z,4.13
2018-09-12T10:29:21.772Z,3.80
2018-09-12T10:31:50.395Z,4.20
2018-09-12T10:34:19.072Z,4.40
2018-09-12T10:36:48.058Z,3.70
2018-09-12T10:39:16.628Z,4.43
2018-09-12T10:41:45.240Z,4.50
2018-09-12T10:44:13.860Z,3.90
2018-09-12T10:46:42.404Z,3.87
2018-09-12T10:49:11.106Z,3.90
2018-09-12T10:51:39.640Z,3.37
2018-09-12T10:54:08.219Z,3.33
2018-09-12T10:56:37.159Z,3.30
2018-09-12T10:59:05.766Z,3.43
2018-09-12T11:01:34.295Z,3.03
2018-09-12T11:04:02.860Z,3.23
2018-09-12T11:06:31.395Z,3.27
2018-09-12T11:09:00.056Z,3.10
2018-09-12T11:11:28.632Z,4.07
2018-09-12T11:13:57.183Z,2.83
2018-09-12T11:16:25.764Z,3.60
2018-09-12T11:18:55.188Z,3.53
2018-09-12T11:21:23.737Z,3.10
2018-09-12T11:23:52.336Z,3.37
2018-09-12T11:26:20.943Z,3.00
2018-09-12T11:28:49.672Z,2.90
2018-09-12T11:31:18.211Z,3.27
2018-09-12T11:33:47.363Z,2.60
2018-09-12T11:36:16.055Z,2.93
2018-09-12T11:38:44.648Z,2.90
2018-09-12T11:41:13.315Z,3.07
2018-09-12T11:43:41.875Z,4.10
2018-09-12T11:46:10.896Z,3.37
2018-09-12T11:48:39.552Z,3.47
2018-09-12T11:51:08.123Z,3.03
2018-09-12T11:53:36.684Z,2.70
2018-09-12T11:56:05.367Z,3.90
2018-09-12T11:58:33.931Z,3.40
2018-09-12T12:01:02.483Z,3.20
2018-09-12T12:03:31.061Z,2.73
2018-09-12T12:05:59.651Z,3.37
2018-09-12T12:08:28.195Z,3.17
2018-09-12T12:10:56.784Z,3.20
2018-09-12T12:13:25.328Z,3.50
2018-09-12T12:15:53.875Z,3.67
2018-09-12T12:18:22.456Z,4.40
2018-09-12T12:20:51.006Z,3.43
2018-09-12T12:23:19.630Z,3.70
2018-09-12T12:25:48.212Z,3.83
2018-09-12T12:28:16.769Z,4.17
2018-09-12T12:30:45.324Z,3.87
2018-09-12T12:33:14.204Z,3.63
2018-09-12T12:35:42.768Z,3.90
2018-09-12T12:38:11.335Z,3.80
2018-09-12T12:40:40.035Z,3.33
2018-09-12T12:43:08.589Z,4.13
2018-09-12T12:45:37.137Z,4.33
2018-09-12T12:48:06.024Z,4.20
2018-09-12T12:50:34.576Z,4.07
2018-09-12T12:53:03.127Z,4.10
2018-09-12T12:55:31.804Z,3.40
2018-09-12T12:58:00.368Z,3.53
2018-09-12T13:00:29.372Z,4.10
2018-09-12T13:02:58.119Z,4.33
2018-09-12T13:05:26.720Z,4.03
2018-09-12T13:07:55.228Z,3.97
2018-09-12T13:10:23.891Z,4.00
2018-09-12T13:12:52.428Z,4.50
2018-09-12T13:15:20.988Z,3.40
2018-09-12T13:17:49.663Z,4.10
2018-09-12T13:20:18.237Z,3.63
2018-09-12T13:22:46.837Z,5.20
2018-09-12T13:25:15.508Z,4.17
2018-09-12T13:27:44.198Z,3.73
2018-09-12T13:30:13.540Z,3.90
2018-09-12T13:32:42.263Z,4.20
2018-09-12T13:35:10.928Z,4.67
2018-09-12T13:37:39.480Z,4.70
2018-09-12T13:40:08.096Z,4.20
2018-09-12T13:42:36.715Z,4.37
2018-09-12T13:45:05.354Z,3.80
2018-09-12T13:47:33.930Z,4.20
2018-09-12T13:50:02.503Z,4.10
2018-09-12T13:52:31.083Z,3.80
2018-09-12T13:54:59.771Z,3.73
2018-09-12T13:57:28.339Z,3.70
2018-09-12T13:59:56.883Z,3.63
2018-09-12T14:02:25.995Z,4.23
2018-09-12T14:04:54.991Z,3.90
2018-09-12T14:07:23.579Z,3.90
2018-09-12T14:09:52.159Z,4.37
2018-09-12T14:12:20.711Z,3.90
2018-09-12T14:14:49.274Z,3.20
2018-09-12T14:17:17.975Z,4.37
2018-09-12T14:19:46.536Z,4.50
2018-09-12T14:22:15.087Z,3.97
2018-09-12T14:24:43.875Z,3.93
2018-09-12T14:27:12.421Z,4.70
2018-09-12T14:29:40.979Z,4.10
2018-09-12T14:32:09.773Z,3.80
2018-09-12T14:34:38.283Z,4.27
2018-09-12T14:37:06.863Z,4.20
2018-09-12T14:39:35.557Z,3.70
2018-09-12T14:42:04.091Z,4.10
2018-09-12T14:44:32.656Z,3.60
2018-09-12T14:47:01.355Z,4.00
2018-09-12T14:49:29.899Z,3.80
2018-09-12T14:51:58.452Z,3.60
2018-09-12T14:54:27.145Z,4.70
2018-09-12T14:56:55.695Z,3.83
2018-09-12T14:59:24.256Z,4.20
2018-09-12T15:01:53.239Z,4.30
2018-09-12T15:04:21.835Z,3.50
2018-09-12T15:06:50.658Z,3.70
2018-09-12T15:09:19.268Z,4.00
2018-09-12T15:11:47.839Z,3.60
2018-09-12T15:14:16.412Z,3.97
2018-09-12T15:16:45.520Z,4.47
2018-09-12T15:19:14.160Z,4.23
2018-09-12T15:21:42.757Z,4.57
2018-09-12T15:24:11.364Z,3.80
2018-09-12T15:26:39.935Z,4.40
2018-09-12T15:29:08.655Z,4.40
2018-09-12T15:31:37.280Z,4.30
2018-09-12T15:34:05.883Z,13.40
2018-09-12T15:36:34.465Z,9.43
2018-09-12T15:39:03.212Z,5.67
2018-09-12T15:41:31.925Z,4.53
2018-09-12T15:44:00.374Z,4.97
2018-09-12T15:46:29.059Z,4.13
2018-09-12T15:48:57.636Z,4.67
2018-09-12T15:51:26.208Z,4.00
2018-09-12T15:53:55.269Z,4.27
2018-09-12T15:56:23.916Z,4.20
2018-09-12T15:58:52.475Z,3.83
2018-09-12T16:01:21.148Z,4.40
2018-09-12T16:03:49.770Z,4.93
2018-09-12T16:06:18.279Z,4.70
2018-09-12T16:08:46.947Z,4.40
2018-09-12T16:11:15.527Z,4.13
2018-09-12T16:13:44.080Z,4.10
2018-09-12T16:16:12.655Z,4.63
2018-09-12T16:18:41.207Z,5.67
2018-09-12T16:21:09.759Z,3.90
2018-09-12T16:23:38.367Z,5.10
2018-09-12T16:26:07.035Z,5.40
2018-09-12T16:28:35.588Z,4.17
2018-09-12T16:31:04.184Z,4.37
2018-09-12T16:33:32.743Z,4.70
2018-09-12T16:36:01.332Z,5.40
2018-09-12T16:38:30.023Z,4.20
2018-09-12T16:40:58.599Z,4.53
2018-09-12T16:43:27.183Z,4.90
2018-09-12T16:45:55.771Z,5.30
2018-09-12T16:48:24.327Z,4.47
2018-09-12T16:50:52.912Z,4.47
2018-09-12T16:53:21.495Z,4.63
2018-09-12T16:55:50.103Z,4.60
2018-09-12T16:58:18.671Z,4.70
2018-09-12T17:00:47.288Z,4.73
2018-09-12T17:03:15.831Z,5.03
2018-09-12T17:05:44.468Z,4.90
2018-09-12T17:08:13.060Z,5.00
2018-09-12T17:10:41.638Z,4.77
2018-09-12T17:13:10.191Z,4.90
2018-09-12T17:15:38.775Z,5.47
2018-09-12T17:18:07.352Z,4.40
2018-09-12T17:20:35.926Z,4.83
2018-09-12T17:23:04.559Z,5.10
2018-09-12T17:25:33.119Z,6.10
2018-09-12T17:28:01.678Z,6.73
2018-09-12T17:30:30.550Z,6.53
2018-09-12T17:32:59.220Z,7.70
2018-09-12T17:35:28.263Z,7.17
2018-09-12T17:37:56.987Z,8.70
2018-09-12T17:40:25.571Z,6.87
2018-09-12T17:42:54.156Z,6.37
2018-09-12T17:45:22.781Z,6.63
2018-09-12T17:47:51.435Z,7.13
2018-09-12T17:50:19.992Z,7.23
2018-09-12T17:52:48.946Z,7.40
2018-09-12T17:55:17.505Z,6.80
2018-09-12T17:57:46.076Z,6.37
2018-09-12T18:00:14.715Z,6.10
2018-09-12T18:02:43.283Z,6.13
2018-09-12T18:05:11.839Z,6.57
2018-09-12T18:07:40.527Z,6.90
2018-09-12T18:10:09.079Z,6.80
2018-09-12T18:12:37.649Z,6.40
2018-09-12T18:15:06.467Z,6.37
2018-09-12T18:17:35.045Z,5.77
2018-09-12T18:20:03.648Z,5.83
2018-09-12T18:22:32.240Z,6.50
2018-09-12T18:25:00.827Z,6.47
2018-09-12T18:27:29.451Z,5.93
2018-09-12T18:29:58.193Z,6.97
2018-09-12T18:32:26.795Z,6.10
2018-09-12T18:34:55.424Z,6.73
2018-09-12T18:37:24.111Z,6.03
2018-09-12T18:39:52.751Z,7.10
2018-09-12T18:42:21.294Z,6.47
2018-09-12T18:44:49.875Z,7.00
2018-09-12T18:47:18.679Z,6.20
2018-09-12T18:49:47.236Z,6.60
2018-09-12T18:52:15.833Z,6.30
2018-09-12T18:54:44.381Z,6.50
2018-09-12T18:57:12.947Z,5.90
2018-09-12T18:59:41.606Z,6.10
2018-09-12T19:02:10.164Z,6.53
2018-09-12T19:04:38.723Z,7.07
2018-09-12T19:07:08.016Z,6.93
2018-09-12T19:09:36.351Z,6.33
2018-09-12T19:12:04.919Z,6.87
2018-09-12T19:14:33.849Z,6.70
2018-09-12T19:17:02.408Z,5.63
2018-09-12T19:19:30.955Z,6.90
2018-09-12T19:21:59.559Z,7.20
2018-09-12T19:24:28.124Z,7.90
2018-09-12T19:26:56.696Z,6.83
2018-09-12T19:29:25.364Z,7.63
2018-09-12T19:31:53.908Z,6.67
2018-09-12T19:34:22.471Z,7.13
2018-09-12T19:36:51.060Z,7.40
2018-09-12T19:39:19.924Z,6.90
2018-09-12T19:41:48.592Z,6.77
2018-09-12T19:44:17.215Z,7.23
2018-09-12T19:46:45.763Z,6.50
2018-09-12T19:49:14.328Z,6.53
2018-09-12T19:51:42.939Z,5.90
2018-09-12T19:54:11.916Z,6.50
2018-09-12T19:56:40.455Z,6.77
2018-09-12T19:59:09.076Z,6.60
2018-09-12T20:01:37.624Z,6.50
2018-09-12T20:04:06.683Z,7.20
2018-09-12T20:06:35.402Z,7.13
2018-09-12T20:09:04.959Z,7.57
2018-09-12T20:11:33.604Z,8.13
2018-09-12T20:14:02.500Z,6.87
2018-09-12T20:16:31.115Z,7.10
2018-09-12T20:18:59.711Z,7.20
2018-09-12T20:21:28.291Z,7.27
2018-09-12T20:23:56.980Z,7.83
2018-09-12T20:26:25.427Z,6.60
2018-09-12T20:28:54.284Z,7.03
2018-09-12T20:31:22.828Z,6.90
2018-09-12T20:33:51.368Z,7.30
2018-09-12T20:36:19.979Z,7.63
2018-09-12T20:38:48.540Z,6.30
2018-09-12T20:41:17.111Z,6.70
2018-09-12T20:43:45.787Z,6.20
2018-09-12T20:46:14.344Z,7.20
2018-09-12T20:48:42.957Z,7.40
2018-09-12T20:51:11.816Z,7.43
2018-09-12T20:53:40.381Z,7.33
2018-09-12T20:56:09.101Z,7.10
2018-09-12T20:58:37.704Z,7.27
2018-09-12T21:01:06.379Z,8.00
2018-09-12T21:03:34.930Z,8.80
2018-09-12T21:06:04.527Z,8.07
2018-09-12T21:08:33.099Z,8.20
2018-09-12T21:11:01.675Z,7.63
2018-09-12T21:13:30.252Z,7.23
2018-09-12T21:15:58.807Z,7.60
2018-09-12T21:18:27.376Z,9.80
2018-09-12T21:20:55.995Z,9.23
2018-09-12T21:23:24.557Z,7.90
2018-09-12T21:25:53.115Z,8.37
2018-09-12T21:28:21.787Z,8.17
2018-09-12T21:30:50.388Z,8.40
2018-09-12T21:33:19.023Z,9.50
2018-09-12T21:35:48.052Z,8.80
2018-09-12T21:38:16.631Z,8.63
2018-09-12T21:40:45.285Z,8.23
2018-09-12T21:43:14.227Z,8.63
2018-09-12T21:45:42.799Z,9.73
2018-09-12T21:48:11.359Z,10.83
2018-09-12T21:50:39.951Z,9.20
2018-09-12T21:53:08.499Z,7.37
2018-09-12T21:55:37.088Z,9.47
2018-09-12T21:58:05.967Z,9.23
2018-09-12T22:00:34.571Z,9.33
2018-09-12T22:03:03.154Z,10.07
2018-09-12T22:05:31.734Z,10.10
2018-09-12T22:08:00.342Z,9.23
2018-09-12T22:10:28.880Z,9.20
2018-09-12T22:12:57.483Z,10.10
2018-09-12T22:15:26.042Z,9.57
2018-09-12T22:17:54.588Z,8.70
2018-09-12T22:20:23.594Z,10.60
2018-09-12T22:22:52.180Z,10.50
2018-09-12T22:25:20.742Z,9.53
2018-09-12T22:27:49.498Z,10.27
2018-09-12T22:30:18.056Z,9.63
2018-09-12T22:32:46.636Z,10.00
2018-09-12T22:35:15.624Z,9.40
2018-09-12T22:37:44.619Z,9.33
2018-09-12T22:40:13.264Z,9.43
2018-09-12T22:42:41.855Z,8.10
2018-09-12T22:45:10.427Z,9.40
2018-09-12T22:47:39.007Z,9.87
2018-09-12T22:50:07.771Z,10.00
2018-09-12T22:52:36.327Z,10.93
2018-09-12T22:55:04.960Z,10.97
2018-09-12T22:57:33.631Z,8.70
2018-09-12T23:00:02.187Z,10.30
2018-09-12T23:02:30.739Z,9.50
2018-09-12T23:04:59.369Z,8.80
2018-09-12T23:07:27.919Z,8.70
2018-09-12T23:09:56.484Z,8.73
2018-09-12T23:12:25.144Z,8.87
2018-09-12T23:14:53.707Z,9.50
2018-09-12T23:17:22.259Z,8.10
2018-09-12T23:19:50.963Z,7.43
2018-09-12T23:22:19.522Z,9.67
2018-09-12T23:24:48.070Z,7.50
2018-09-12T23:27:16.647Z,8.40
2018-09-12T23:29:45.204Z,9.10
2018-09-12T23:32:13.759Z,8.03
2018-09-12T23:34:42.439Z,8.80
2018-09-12T23:37:10.993Z,8.00
2018-09-12T23:39:39.544Z,7.80
2018-09-12T23:42:08.218Z,7.13
2018-09-12T23:44:36.764Z,7.63
2018-09-12T23:47:05.323Z,8.20
2018-09-12T23:49:33.905Z,8.20
2018-09-12T23:52:02.533Z,8.60
2018-09-12T23:54:31.167Z,8.20
2018-09-12T23:56:59.968Z,7.47
2018-09-12T23:59:28.524Z,8.10
